sensor_id;sensor_type;location;lat;lon;timestamp;P1;durP1;ratioP1;P2;durP2;ratioP2
27792;SDS011;15174;48.190;11.462;2024-03-22T00:01:58;43.90;;;18.77;;
27792;SDS011;15174;48.190;11.462;2024-03-22T00:04:25;46.08;;;20.15;;
27792;SDS011;15174;48.190;11.462;2024-03-22T00:06:52;35.88;;;18.70;;
27792;SDS011;15174;48.190;11.462;2024-03-22T00:09:20;37.00;;;19.58;;
27792;SDS011;15174;48.190;11.462;2024-03-22T00:11:47;41.57;;;19.63;;
27792;SDS011;15174;48.190;11.462;2024-03-22T00:14:14;40.45;;;18.35;;
27792;SDS011;15174;48.190;11.462;2024-03-22T00:16:42;35.38;;;17.92;;
27792;SDS011;15174;48.190;11.462;2024-03-22T00:19:09;39.73;;;17.07;;
27792;SDS011;15174;48.190;11.462;2024-03-22T00:21:34;34.95;;;17.17;;
27792;SDS011;15174;48.190;11.462;2024-03-22T00:24:00;35.13;;;17.42;;
27792;SDS011;15174;48.190;11.462;2024-03-22T00:26:26;33.70;;;17.00;;
27792;SDS011;15174;48.190;11.462;2024-03-22T00:28:52;30.30;;;16.48;;
27792;SDS011;15174;48.190;11.462;2024-03-22T00:31:18;44.05;;;17.83;;
27792;SDS011;15174;48.190;11.462;2024-03-22T00:33:44;34.55;;;17.92;;
27792;SDS011;15174;48.190;11.462;2024-03-22T00:36:09;37.47;;;17.90;;
27792;SDS011;15174;48.190;11.462;2024-03-22T00:38:35;38.22;;;17.65;;
27792;SDS011;15174;48.190;11.462;2024-03-22T00:41:01;37.45;;;17.58;;
27792;SDS011;15174;48.190;11.462;2024-03-22T00:43:26;36.40;;;17.95;;
27792;SDS011;15174;48.190;11.462;2024-03-22T00:45:52;36.30;;;16.88;;
27792;SDS011;15174;48.190;11.462;2024-03-22T00:48:18;32.33;;;16.38;;
27792;SDS011;15174;48.190;11.462;2024-03-22T00:50:43;34.67;;;15.63;;
27792;SDS011;15174;48.190;11.462;2024-03-22T00:53:09;36.90;;;16.65;;
27792;SDS011;15174;48.190;11.462;2024-03-22T00:55:35;33.85;;;16.13;;
27792;SDS011;15174;48.190;11.462;2024-03-22T00:58:01;37.72;;;15.57;;
27792;SDS011;15174;48.190;11.462;2024-03-22T01:00:27;26.60;;;15.15;;
27792;SDS011;15174;48.190;11.462;2024-03-22T01:02:53;33.78;;;17.00;;
27792;SDS011;15174;48.190;11.462;2024-03-22T01:05:19;31.27;;;16.30;;
27792;SDS011;15174;48.190;11.462;2024-03-22T01:07:44;30.98;;;15.48;;
27792;SDS011;15174;48.190;11.462;2024-03-22T01:10:13;32.75;;;16.33;;
27792;SDS011;15174;48.190;11.462;2024-03-22T01:12:39;29.00;;;16.10;;
27792;SDS011;15174;48.190;11.462;2024-03-22T01:15:05;27.33;;;14.32;;
27792;SDS011;15174;48.190;11.462;2024-03-22T01:17:31;28.33;;;14.85;;
27792;SDS011;15174;48.190;11.462;2024-03-22T01:19:57;32.05;;;15.32;;
27792;SDS011;15174;48.190;11.462;2024-03-22T01:22:23;32.40;;;16.30;;
27792;SDS011;15174;48.190;11.462;2024-03-22T01:24:49;27.48;;;14.27;;
27792;SDS011;15174;48.190;11.462;2024-03-22T01:27:14;31.45;;;15.32;;
27792;SDS011;15174;48.190;11.462;2024-03-22T01:29:40;34.75;;;17.08;;
27792;SDS011;15174;48.190;11.462;2024-03-22T01:32:06;32.35;;;14.77;;
27792;SDS011;15174;48.190;11.462;2024-03-22T01:34:32;30.80;;;16.00;;
27792;SDS011;15174;48.190;11.462;2024-03-22T01:36:58;33.05;;;15.02;;
27792;SDS011;15174;48.190;11.462;2024-03-22T01:39:23;41.17;;;15.88;;
27792;SDS011;15174;48.190;11.462;2024-03-22T01:41:49;28.25;;;15.40;;
27792;SDS011;15174;48.190;11.462;2024-03-22T01:44:16;27.70;;;15.18;;
27792;SDS011;15174;48.190;11.462;2024-03-22T01:46:42;40.08;;;16.25;;
27792;SDS011;15174;48.190;11.462;2024-03-22T01:49:09;32.13;;;16.40;;
27792;SDS011;15174;48.190;11.462;2024-03-22T01:51:38;37.55;;;16.27;;
27792;SDS011;15174;48.190;11.462;2024-03-22T01:54:08;37.33;;;15.03;;
27792;SDS011;15174;48.190;11.462;2024-03-22T01:56:38;36.80;;;16.25;;
27792;SDS011;15174;48.190;11.462;2024-03-22T01:59:04;35.38;;;15.98;;
27792;SDS011;15174;48.190;11.462;2024-03-22T02:01:31;27.98;;;14.27;;
27792;SDS011;15174;48.190;11.462;2024-03-22T02:03:57;34.13;;;15.30;;
27792;SDS011;15174;48.190;11.462;2024-03-22T02:06:23;31.13;;;14.25;;
27792;SDS011;15174;48.190;11.462;2024-03-22T02:08:49;33.95;;;15.82;;
27792;SDS011;15174;48.190;11.462;2024-03-22T02:11:14;32.65;;;15.65;;
27792;SDS011;15174;48.190;11.462;2024-03-22T02:13:41;33.63;;;15.40;;
27792;SDS011;15174;48.190;11.462;2024-03-22T02:16:08;33.53;;;16.73;;
27792;SDS011;15174;48.190;11.462;2024-03-22T02:18:34;28.95;;;14.75;;
27792;SDS011;15174;48.190;11.462;2024-03-22T02:21:00;28.15;;;14.60;;
27792;SDS011;15174;48.190;11.462;2024-03-22T02:23:32;34.92;;;14.88;;
27792;SDS011;15174;48.190;11.462;2024-03-22T02:25:59;32.05;;;15.48;;
27792;SDS011;15174;48.190;11.462;2024-03-22T02:28:25;32.28;;;15.15;;
27792;SDS011;15174;48.190;11.462;2024-03-22T02:30:51;33.08;;;15.05;;
27792;SDS011;15174;48.190;11.462;2024-03-22T02:33:16;28.75;;;14.65;;
27792;SDS011;15174;48.190;11.462;2024-03-22T02:35:42;26.73;;;14.00;;
27792;SDS011;15174;48.190;11.462;2024-03-22T02:38:08;29.05;;;15.25;;
27792;SDS011;15174;48.190;11.462;2024-03-22T02:40:33;31.75;;;15.98;;
27792;SDS011;15174;48.190;11.462;2024-03-22T02:42:59;31.00;;;16.10;;
27792;SDS011;15174;48.190;11.462;2024-03-22T02:45:25;33.42;;;16.40;;
27792;SDS011;15174;48.190;11.462;2024-03-22T02:47:51;33.83;;;15.68;;
27792;SDS011;15174;48.190;11.462;2024-03-22T02:50:16;27.33;;;14.95;;
27792;SDS011;15174;48.190;11.462;2024-03-22T02:52:42;28.73;;;14.40;;
27792;SDS011;15174;48.190;11.462;2024-03-22T02:55:07;36.92;;;14.85;;
27792;SDS011;15174;48.190;11.462;2024-03-22T02:57:33;33.85;;;15.25;;
27792;SDS011;15174;48.190;11.462;2024-03-22T03:00:01;30.77;;;15.18;;
27792;SDS011;15174;48.190;11.462;2024-03-22T03:02:28;29.05;;;13.38;;
27792;SDS011;15174;48.190;11.462;2024-03-22T03:04:54;35.20;;;16.05;;
27792;SDS011;15174;48.190;11.462;2024-03-22T03:07:19;31.65;;;16.30;;
27792;SDS011;15174;48.190;11.462;2024-03-22T03:09:45;32.90;;;15.73;;
27792;SDS011;15174;48.190;11.462;2024-03-22T03:12:11;35.80;;;16.15;;
27792;SDS011;15174;48.190;11.462;2024-03-22T03:14:36;34.53;;;17.00;;
27792;SDS011;15174;48.190;11.462;2024-03-22T03:17:02;43.22;;;17.05;;
27792;SDS011;15174;48.190;11.462;2024-03-22T03:19:28;39.58;;;16.58;;
27792;SDS011;15174;48.190;11.462;2024-03-22T03:21:54;40.53;;;16.00;;
27792;SDS011;15174;48.190;11.462;2024-03-22T03:24:21;37.70;;;16.52;;
27792;SDS011;15174;48.190;11.462;2024-03-22T03:26:46;34.80;;;16.83;;
27792;SDS011;15174;48.190;11.462;2024-03-22T03:29:12;32.08;;;15.23;;
27792;SDS011;15174;48.190;11.462;2024-03-22T03:31:38;36.30;;;16.42;;
27792;SDS011;15174;48.190;11.462;2024-03-22T03:34:04;36.40;;;16.10;;
27792;SDS011;15174;48.190;11.462;2024-03-22T03:36:30;34.28;;;17.38;;
27792;SDS011;15174;48.190;11.462;2024-03-22T03:38:56;44.63;;;17.45;;
27792;SDS011;15174;48.190;11.462;2024-03-22T03:41:22;34.67;;;16.73;;
27792;SDS011;15174;48.190;11.462;2024-03-22T03:43:48;35.53;;;17.50;;
27792;SDS011;15174;48.190;11.462;2024-03-22T03:46:14;38.15;;;17.63;;
27792;SDS011;15174;48.190;11.462;2024-03-22T03:48:40;35.60;;;17.15;;
27792;SDS011;15174;48.190;11.462;2024-03-22T03:51:05;41.28;;;17.95;;
27792;SDS011;15174;48.190;11.462;2024-03-22T03:53:31;43.92;;;18.35;;
27792;SDS011;15174;48.190;11.462;2024-03-22T03:55:56;44.50;;;19.02;;
27792;SDS011;15174;48.190;11.462;2024-03-22T03:58:22;44.33;;;19.40;;
27792;SDS011;15174;48.190;11.462;2024-03-22T04:00:48;45.22;;;19.60;;
27792;SDS011;15174;48.190;11.462;2024-03-22T04:03:13;50.83;;;19.67;;
27792;SDS011;15174;48.190;11.462;2024-03-22T04:05:39;45.25;;;19.23;;
27792;SDS011;15174;48.190;11.462;2024-03-22T04:08:05;38.17;;;18.35;;
27792;SDS011;15174;48.190;11.462;2024-03-22T04:10:31;43.72;;;19.50;;
27792;SDS011;15174;48.190;11.462;2024-03-22T04:12:57;42.50;;;18.38;;
27792;SDS011;15174;48.190;11.462;2024-03-22T04:15:23;36.38;;;15.60;;
27792;SDS011;15174;48.190;11.462;2024-03-22T04:17:50;31.92;;;15.57;;
27792;SDS011;15174;48.190;11.462;2024-03-22T04:20:16;31.65;;;16.23;;
27792;SDS011;15174;48.190;11.462;2024-03-22T04:22:43;28.42;;;15.50;;
27792;SDS011;15174;48.190;11.462;2024-03-22T04:25:08;30.38;;;15.60;;
27792;SDS011;15174;48.190;11.462;2024-03-22T04:27:37;37.13;;;17.00;;
27792;SDS011;15174;48.190;11.462;2024-03-22T04:30:03;31.42;;;15.50;;
27792;SDS011;15174;48.190;11.462;2024-03-22T04:32:29;30.33;;;14.90;;
27792;SDS011;15174;48.190;11.462;2024-03-22T04:34:55;33.00;;;16.05;;
27792;SDS011;15174;48.190;11.462;2024-03-22T04:37:21;29.15;;;15.40;;
27792;SDS011;15174;48.190;11.462;2024-03-22T04:39:48;30.00;;;14.67;;
27792;SDS011;15174;48.190;11.462;2024-03-22T04:42:14;34.22;;;16.10;;
27792;SDS011;15174;48.190;11.462;2024-03-22T04:44:41;32.75;;;16.73;;
27792;SDS011;15174;48.190;11.462;2024-03-22T04:47:07;32.88;;;16.63;;
27792;SDS011;15174;48.190;11.462;2024-03-22T04:49:33;42.15;;;17.88;;
27792;SDS011;15174;48.190;11.462;2024-03-22T04:51:59;39.22;;;17.10;;
27792;SDS011;15174;48.190;11.462;2024-03-22T04:54:25;35.67;;;16.85;;
27792;SDS011;15174;48.190;11.462;2024-03-22T04:56:51;33.53;;;16.48;;
27792;SDS011;15174;48.190;11.462;2024-03-22T04:59:17;33.67;;;16.40;;
27792;SDS011;15174;48.190;11.462;2024-03-22T05:01:43;33.65;;;16.98;;
27792;SDS011;15174;48.190;11.462;2024-03-22T05:04:09;37.67;;;17.67;;
27792;SDS011;15174;48.190;11.462;2024-03-22T05:06:37;37.38;;;19.10;;
27792;SDS011;15174;48.190;11.462;2024-03-22T05:09:03;46.70;;;20.83;;
27792;SDS011;15174;48.190;11.462;2024-03-22T05:11:29;50.53;;;21.08;;
27792;SDS011;15174;48.190;11.462;2024-03-22T05:13:55;45.05;;;21.45;;
27792;SDS011;15174;48.190;11.462;2024-03-22T05:16:21;38.70;;;18.05;;
27792;SDS011;15174;48.190;11.462;2024-03-22T05:18:48;41.92;;;20.30;;
27792;SDS011;15174;48.190;11.462;2024-03-22T05:21:14;39.92;;;17.70;;
27792;SDS011;15174;48.190;11.462;2024-03-22T05:23:40;39.97;;;19.25;;
27792;SDS011;15174;48.190;11.462;2024-03-22T05:26:07;44.35;;;19.02;;
27792;SDS011;15174;48.190;11.462;2024-03-22T05:28:33;40.30;;;18.83;;
27792;SDS011;15174;48.190;11.462;2024-03-22T05:30:59;38.55;;;19.27;;
27792;SDS011;15174;48.190;11.462;2024-03-22T05:33:25;40.78;;;18.15;;
27792;SDS011;15174;48.190;11.462;2024-03-22T05:35:52;42.83;;;19.60;;
27792;SDS011;15174;48.190;11.462;2024-03-22T05:38:18;41.33;;;18.75;;
27792;SDS011;15174;48.190;11.462;2024-03-22T05:40:44;39.92;;;19.42;;
27792;SDS011;15174;48.190;11.462;2024-03-22T05:43:12;38.70;;;18.85;;
27792;SDS011;15174;48.190;11.462;2024-03-22T05:45:38;47.25;;;20.00;;
27792;SDS011;15174;48.190;11.462;2024-03-22T05:48:04;45.45;;;20.15;;
27792;SDS011;15174;48.190;11.462;2024-03-22T05:50:30;43.42;;;19.42;;
27792;SDS011;15174;48.190;11.462;2024-03-22T05:52:56;40.20;;;17.88;;
27792;SDS011;15174;48.190;11.462;2024-03-22T05:55:22;42.03;;;19.20;;
27792;SDS011;15174;48.190;11.462;2024-03-22T05:57:48;41.30;;;18.75;;
27792;SDS011;15174;48.190;11.462;2024-03-22T06:00:14;45.00;;;19.08;;
27792;SDS011;15174;48.190;11.462;2024-03-22T06:02:40;40.58;;;18.65;;
27792;SDS011;15174;48.190;11.462;2024-03-22T06:05:06;42.38;;;18.05;;
27792;SDS011;15174;48.190;11.462;2024-03-22T06:07:32;44.50;;;19.02;;
27792;SDS011;15174;48.190;11.462;2024-03-22T06:10:05;39.58;;;18.25;;
27792;SDS011;15174;48.190;11.462;2024-03-22T06:12:31;43.38;;;19.30;;
27792;SDS011;15174;48.190;11.462;2024-03-22T06:14:57;41.40;;;17.95;;
27792;SDS011;15174;48.190;11.462;2024-03-22T06:17:23;39.60;;;18.85;;
27792;SDS011;15174;48.190;11.462;2024-03-22T06:19:48;39.30;;;19.20;;
27792;SDS011;15174;48.190;11.462;2024-03-22T06:22:14;39.30;;;17.75;;
27792;SDS011;15174;48.190;11.462;2024-03-22T06:24:39;43.92;;;20.40;;
27792;SDS011;15174;48.190;11.462;2024-03-22T06:27:06;56.67;;;22.83;;
27792;SDS011;15174;48.190;11.462;2024-03-22T06:29:32;52.15;;;25.88;;
27792;SDS011;15174;48.190;11.462;2024-03-22T06:31:58;60.55;;;29.30;;
27792;SDS011;15174;48.190;11.462;2024-03-22T06:34:24;61.45;;;30.05;;
27792;SDS011;15174;48.190;11.462;2024-03-22T06:36:50;58.50;;;29.05;;
27792;SDS011;15174;48.190;11.462;2024-03-22T06:39:16;39.58;;;22.13;;
27792;SDS011;15174;48.190;11.462;2024-03-22T06:41:42;22.13;;;13.00;;
27792;SDS011;15174;48.190;11.462;2024-03-22T06:44:08;20.85;;;10.60;;
27792;SDS011;15174;48.190;11.462;2024-03-22T06:46:37;15.18;;;9.18;;
27792;SDS011;15174;48.190;11.462;2024-03-22T06:49:03;20.88;;;8.73;;
27792;SDS011;15174;48.190;11.462;2024-03-22T06:51:29;12.70;;;7.15;;
27792;SDS011;15174;48.190;11.462;2024-03-22T06:53:55;13.45;;;6.60;;
27792;SDS011;15174;48.190;11.462;2024-03-22T06:56:21;14.30;;;7.57;;
27792;SDS011;15174;48.190;11.462;2024-03-22T06:58:47;12.77;;;6.53;;
27792;SDS011;15174;48.190;11.462;2024-03-22T07:01:13;13.75;;;6.18;;
27792;SDS011;15174;48.190;11.462;2024-03-22T07:03:39;9.63;;;5.40;;
27792;SDS011;15174;48.190;11.462;2024-03-22T07:06:05;8.27;;;5.05;;
27792;SDS011;15174;48.190;11.462;2024-03-22T07:08:33;11.52;;;5.38;;
27792;SDS011;15174;48.190;11.462;2024-03-22T07:10:59;10.73;;;5.45;;
27792;SDS011;15174;48.190;11.462;2024-03-22T07:13:25;9.65;;;5.47;;
27792;SDS011;15174;48.190;11.462;2024-03-22T07:15:51;9.77;;;4.85;;
27792;SDS011;15174;48.190;11.462;2024-03-22T07:18:17;7.78;;;4.97;;
27792;SDS011;15174;48.190;11.462;2024-03-22T07:20:44;19.48;;;5.60;;
27792;SDS011;15174;48.190;11.462;2024-03-22T07:23:11;10.00;;;5.57;;
27792;SDS011;15174;48.190;11.462;2024-03-22T07:25:37;15.02;;;5.43;;
27792;SDS011;15174;48.190;11.462;2024-03-22T07:28:03;8.13;;;5.43;;
27792;SDS011;15174;48.190;11.462;2024-03-22T07:30:29;11.27;;;6.15;;
27792;SDS011;15174;48.190;11.462;2024-03-22T07:32:55;10.77;;;6.40;;
27792;SDS011;15174;48.190;11.462;2024-03-22T07:35:21;22.13;;;6.43;;
27792;SDS011;15174;48.190;11.462;2024-03-22T07:37:47;13.10;;;5.95;;
27792;SDS011;15174;48.190;11.462;2024-03-22T07:40:13;13.50;;;6.40;;
27792;SDS011;15174;48.190;11.462;2024-03-22T07:42:40;15.07;;;5.78;;
27792;SDS011;15174;48.190;11.462;2024-03-22T07:45:06;9.43;;;5.75;;
27792;SDS011;15174;48.190;11.462;2024-03-22T07:47:32;13.75;;;6.93;;
27792;SDS011;15174;48.190;11.462;2024-03-22T07:49:59;11.77;;;6.03;;
27792;SDS011;15174;48.190;11.462;2024-03-22T07:52:25;9.77;;;6.10;;
27792;SDS011;15174;48.190;11.462;2024-03-22T07:54:54;10.00;;;5.35;;
27792;SDS011;15174;48.190;11.462;2024-03-22T07:57:20;13.18;;;6.00;;
27792;SDS011;15174;48.190;11.462;2024-03-22T07:59:48;20.08;;;6.93;;
27792;SDS011;15174;48.190;11.462;2024-03-22T08:02:14;9.23;;;5.78;;
27792;SDS011;15174;48.190;11.462;2024-03-22T08:04:40;13.82;;;6.93;;
27792;SDS011;15174;48.190;11.462;2024-03-22T08:07:06;12.75;;;6.25;;
27792;SDS011;15174;48.190;11.462;2024-03-22T08:09:32;13.05;;;5.78;;
27792;SDS011;15174;48.190;11.462;2024-03-22T08:11:58;9.20;;;6.10;;
27792;SDS011;15174;48.190;11.462;2024-03-22T08:14:24;9.75;;;5.07;;
27792;SDS011;15174;48.190;11.462;2024-03-22T08:16:51;15.07;;;6.45;;
27792;SDS011;15174;48.190;11.462;2024-03-22T08:19:17;12.90;;;4.93;;
27792;SDS011;15174;48.190;11.462;2024-03-22T08:21:43;11.70;;;5.05;;
27792;SDS011;15174;48.190;11.462;2024-03-22T08:24:09;7.65;;;4.90;;
27792;SDS011;15174;48.190;11.462;2024-03-22T08:26:35;6.82;;;4.72;;
27792;SDS011;15174;48.190;11.462;2024-03-22T08:29:01;9.30;;;4.35;;
27792;SDS011;15174;48.190;11.462;2024-03-22T08:31:27;11.00;;;4.18;;
27792;SDS011;15174;48.190;11.462;2024-03-22T08:33:53;19.02;;;4.65;;
27792;SDS011;15174;48.190;11.462;2024-03-22T08:36:21;8.43;;;3.63;;
27792;SDS011;15174;48.190;11.462;2024-03-22T08:38:48;10.77;;;3.90;;
27792;SDS011;15174;48.190;11.462;2024-03-22T08:41:14;10.20;;;3.78;;
27792;SDS011;15174;48.190;11.462;2024-03-22T08:43:40;8.45;;;3.75;;
27792;SDS011;15174;48.190;11.462;2024-03-22T08:46:07;4.53;;;3.05;;
27792;SDS011;15174;48.190;11.462;2024-03-22T08:48:33;7.95;;;3.97;;
27792;SDS011;15174;48.190;11.462;2024-03-22T08:50:59;4.43;;;3.17;;
27792;SDS011;15174;48.190;11.462;2024-03-22T08:53:25;10.30;;;3.80;;
27792;SDS011;15174;48.190;11.462;2024-03-22T08:55:51;8.38;;;3.78;;
27792;SDS011;15174;48.190;11.462;2024-03-22T08:58:17;5.80;;;3.63;;
27792;SDS011;15174;48.190;11.462;2024-03-22T09:00:43;10.35;;;2.75;;
27792;SDS011;15174;48.190;11.462;2024-03-22T09:03:09;6.55;;;3.85;;
27792;SDS011;15174;48.190;11.462;2024-03-22T09:05:35;3.90;;;2.65;;
27792;SDS011;15174;48.190;11.462;2024-03-22T09:08:06;5.30;;;3.88;;
27792;SDS011;15174;48.190;11.462;2024-03-22T09:10:32;7.53;;;3.33;;
27792;SDS011;15174;48.190;11.462;2024-03-22T09:12:58;5.85;;;2.92;;
27792;SDS011;15174;48.190;11.462;2024-03-22T09:15:24;4.93;;;2.92;;
27792;SDS011;15174;48.190;11.462;2024-03-22T09:17:54;6.30;;;3.67;;
27792;SDS011;15174;48.190;11.462;2024-03-22T09:20:20;11.73;;;3.47;;
27792;SDS011;15174;48.190;11.462;2024-03-22T09:22:46;4.03;;;3.13;;
27792;SDS011;15174;48.190;11.462;2024-03-22T09:25:13;6.00;;;2.90;;
27792;SDS011;15174;48.190;11.462;2024-03-22T09:27:39;4.13;;;2.88;;
27792;SDS011;15174;48.190;11.462;2024-03-22T09:30:05;5.53;;;3.03;;
27792;SDS011;15174;48.190;11.462;2024-03-22T09:32:31;7.78;;;3.42;;
27792;SDS011;15174;48.190;11.462;2024-03-22T09:34:57;7.93;;;3.20;;
27792;SDS011;15174;48.190;11.462;2024-03-22T09:37:23;7.90;;;3.03;;
27792;SDS011;15174;48.190;11.462;2024-03-22T09:39:50;6.07;;;3.00;;
27792;SDS011;15174;48.190;11.462;2024-03-22T09:42:16;6.15;;;2.80;;
27792;SDS011;15174;48.190;11.462;2024-03-22T09:44:47;7.90;;;3.17;;
27792;SDS011;15174;48.190;11.462;2024-03-22T09:47:16;6.60;;;2.90;;
27792;SDS011;15174;48.190;11.462;2024-03-22T09:49:43;7.70;;;2.58;;
27792;SDS011;15174;48.190;11.462;2024-03-22T09:52:13;4.82;;;2.53;;
27792;SDS011;15174;48.190;11.462;2024-03-22T09:54:43;4.07;;;3.22;;
27792;SDS011;15174;48.190;11.462;2024-03-22T09:57:09;5.35;;;2.92;;
27792;SDS011;15174;48.190;11.462;2024-03-22T09:59:37;4.30;;;2.45;;
27792;SDS011;15174;48.190;11.462;2024-03-22T10:02:04;3.10;;;2.50;;
27792;SDS011;15174;48.190;11.462;2024-03-22T10:04:30;5.85;;;3.10;;
27792;SDS011;15174;48.190;11.462;2024-03-22T10:06:56;6.32;;;3.17;;
27792;SDS011;15174;48.190;11.462;2024-03-22T10:09:29;5.05;;;2.83;;
27792;SDS011;15174;48.190;11.462;2024-03-22T10:11:55;7.28;;;3.60;;
27792;SDS011;15174;48.190;11.462;2024-03-22T10:14:21;7.15;;;3.55;;
27792;SDS011;15174;48.190;11.462;2024-03-22T10:16:53;8.50;;;3.15;;
27792;SDS011;15174;48.190;11.462;2024-03-22T10:19:22;5.47;;;3.47;;
27792;SDS011;15174;48.190;11.462;2024-03-22T10:22:01;4.63;;;3.08;;
27792;SDS011;15174;48.190;11.462;2024-03-22T10:24:28;5.22;;;3.15;;
27792;SDS011;15174;48.190;11.462;2024-03-22T10:26:55;6.13;;;2.90;;
27792;SDS011;15174;48.190;11.462;2024-03-22T10:29:21;10.30;;;3.10;;
27792;SDS011;15174;48.190;11.462;2024-03-22T10:31:48;9.07;;;3.40;;
27792;SDS011;15174;48.190;11.462;2024-03-22T10:34:14;8.55;;;3.38;;
27792;SDS011;15174;48.190;11.462;2024-03-22T10:36:40;7.82;;;3.08;;
27792;SDS011;15174;48.190;11.462;2024-03-22T10:39:07;12.70;;;3.67;;
27792;SDS011;15174;48.190;11.462;2024-03-22T10:41:33;5.72;;;3.65;;
27792;SDS011;15174;48.190;11.462;2024-03-22T10:44:00;5.68;;;3.33;;
27792;SDS011;15174;48.190;11.462;2024-03-22T10:46:28;5.97;;;3.37;;
27792;SDS011;15174;48.190;11.462;2024-03-22T10:48:55;6.70;;;3.38;;
27792;SDS011;15174;48.190;11.462;2024-03-22T10:51:23;8.25;;;4.00;;
27792;SDS011;15174;48.190;11.462;2024-03-22T10:53:49;7.20;;;3.83;;
27792;SDS011;15174;48.190;11.462;2024-03-22T10:56:15;6.55;;;3.05;;
27792;SDS011;15174;48.190;11.462;2024-03-22T10:58:42;6.68;;;3.40;;
27792;SDS011;15174;48.190;11.462;2024-03-22T11:01:21;8.80;;;3.53;;
27792;SDS011;15174;48.190;11.462;2024-03-22T11:03:48;7.10;;;3.63;;
27792;SDS011;15174;48.190;11.462;2024-03-22T11:06:17;7.35;;;4.00;;
27792;SDS011;15174;48.190;11.462;2024-03-22T11:08:44;7.95;;;4.30;;
27792;SDS011;15174;48.190;11.462;2024-03-22T11:11:11;18.23;;;9.77;;
27792;SDS011;15174;48.190;11.462;2024-03-22T11:13:40;13.30;;;3.90;;
27792;SDS011;15174;48.190;11.462;2024-03-22T11:16:06;9.25;;;3.42;;
27792;SDS011;15174;48.190;11.462;2024-03-22T11:18:35;7.32;;;3.55;;
27792;SDS011;15174;48.190;11.462;2024-03-22T11:21:01;12.05;;;4.80;;
27792;SDS011;15174;48.190;11.462;2024-03-22T11:23:28;5.65;;;3.90;;
27792;SDS011;15174;48.190;11.462;2024-03-22T11:25:54;8.65;;;4.90;;
27792;SDS011;15174;48.190;11.462;2024-03-22T11:28:20;11.20;;;4.43;;
27792;SDS011;15174;48.190;11.462;2024-03-22T11:30:46;5.82;;;3.85;;
27792;SDS011;15174;48.190;11.462;2024-03-22T11:33:12;9.55;;;3.88;;
27792;SDS011;15174;48.190;11.462;2024-03-22T11:35:38;8.82;;;4.57;;
27792;SDS011;15174;48.190;11.462;2024-03-22T11:38:04;9.63;;;5.10;;
27792;SDS011;15174;48.190;11.462;2024-03-22T11:40:30;6.07;;;3.78;;
27792;SDS011;15174;48.190;11.462;2024-03-22T11:42:58;6.30;;;3.70;;
27792;SDS011;15174;48.190;11.462;2024-03-22T11:45:25;9.30;;;3.95;;
27792;SDS011;15174;48.190;11.462;2024-03-22T11:47:51;7.50;;;3.67;;
27792;SDS011;15174;48.190;11.462;2024-03-22T11:50:18;8.30;;;3.83;;
27792;SDS011;15174;48.190;11.462;2024-03-22T11:52:44;6.32;;;3.58;;
27792;SDS011;15174;48.190;11.462;2024-03-22T11:55:14;7.30;;;3.42;;
27792;SDS011;15174;48.190;11.462;2024-03-22T11:57:40;8.32;;;3.67;;
27792;SDS011;15174;48.190;11.462;2024-03-22T12:00:07;8.02;;;3.75;;
27792;SDS011;15174;48.190;11.462;2024-03-22T12:02:40;9.50;;;2.95;;
27792;SDS011;15174;48.190;11.462;2024-03-22T12:05:07;8.40;;;4.05;;
27792;SDS011;15174;48.190;11.462;2024-03-22T12:07:33;7.90;;;3.22;;
27792;SDS011;15174;48.190;11.462;2024-03-22T12:09:59;4.78;;;3.30;;
27792;SDS011;15174;48.190;11.462;2024-03-22T12:12:26;6.63;;;3.38;;
27792;SDS011;15174;48.190;11.462;2024-03-22T12:14:52;12.05;;;4.05;;
27792;SDS011;15174;48.190;11.462;2024-03-22T12:17:18;9.02;;;3.08;;
27792;SDS011;15174;48.190;11.462;2024-03-22T12:19:44;6.63;;;4.10;;
27792;SDS011;15174;48.190;11.462;2024-03-22T12:22:10;6.80;;;3.45;;
27792;SDS011;15174;48.190;11.462;2024-03-22T12:24:36;8.88;;;3.72;;
27792;SDS011;15174;48.190;11.462;2024-03-22T12:27:02;7.32;;;3.17;;
27792;SDS011;15174;48.190;11.462;2024-03-22T12:29:29;6.47;;;3.00;;
27792;SDS011;15174;48.190;11.462;2024-03-22T12:31:55;6.47;;;3.67;;
27792;SDS011;15174;48.190;11.462;2024-03-22T12:34:21;17.60;;;4.00;;
27792;SDS011;15174;48.190;11.462;2024-03-22T12:36:47;3.85;;;2.72;;
27792;SDS011;15174;48.190;11.462;2024-03-22T12:39:14;6.43;;;3.42;;
27792;SDS011;15174;48.190;11.462;2024-03-22T12:41:40;4.97;;;2.83;;
27792;SDS011;15174;48.190;11.462;2024-03-22T12:44:06;7.38;;;2.83;;
27792;SDS011;15174;48.190;11.462;2024-03-22T12:46:32;4.93;;;2.63;;
27792;SDS011;15174;48.190;11.462;2024-03-22T12:48:58;4.07;;;2.92;;
27792;SDS011;15174;48.190;11.462;2024-03-22T12:51:24;6.43;;;2.70;;
27792;SDS011;15174;48.190;11.462;2024-03-22T12:53:50;6.15;;;2.47;;
27792;SDS011;15174;48.190;11.462;2024-03-22T12:56:17;4.10;;;2.83;;
27792;SDS011;15174;48.190;11.462;2024-03-22T12:58:43;8.30;;;2.65;;
27792;SDS011;15174;48.190;11.462;2024-03-22T13:01:09;5.22;;;2.78;;
27792;SDS011;15174;48.190;11.462;2024-03-22T13:03:36;4.97;;;2.88;;
27792;SDS011;15174;48.190;11.462;2024-03-22T13:06:03;3.55;;;2.50;;
27792;SDS011;15174;48.190;11.462;2024-03-22T13:08:30;3.55;;;2.28;;
27792;SDS011;15174;48.190;11.462;2024-03-22T13:10:56;6.10;;;2.70;;
27792;SDS011;15174;48.190;11.462;2024-03-22T13:13:22;4.72;;;2.40;;
27792;SDS011;15174;48.190;11.462;2024-03-22T13:15:49;5.88;;;2.55;;
27792;SDS011;15174;48.190;11.462;2024-03-22T13:18:15;6.65;;;1.95;;
27792;SDS011;15174;48.190;11.462;2024-03-22T13:20:42;4.32;;;2.28;;
27792;SDS011;15174;48.190;11.462;2024-03-22T13:23:08;3.55;;;2.50;;
27792;SDS011;15174;48.190;11.462;2024-03-22T13:25:37;3.72;;;2.05;;
27792;SDS011;15174;48.190;11.462;2024-03-22T13:28:03;4.20;;;2.50;;
27792;SDS011;15174;48.190;11.462;2024-03-22T13:30:32;5.88;;;1.98;;
27792;SDS011;15174;48.190;11.462;2024-03-22T13:33:00;4.13;;;2.13;;
27792;SDS011;15174;48.190;11.462;2024-03-22T13:35:26;8.10;;;2.72;;
27792;SDS011;15174;48.190;11.462;2024-03-22T13:37:53;6.00;;;2.55;;
27792;SDS011;15174;48.190;11.462;2024-03-22T13:40:21;4.80;;;2.72;;
27792;SDS011;15174;48.190;11.462;2024-03-22T13:42:47;6.60;;;2.75;;
27792;SDS011;15174;48.190;11.462;2024-03-22T13:45:13;4.70;;;2.40;;
27792;SDS011;15174;48.190;11.462;2024-03-22T13:47:39;5.95;;;2.38;;
27792;SDS011;15174;48.190;11.462;2024-03-22T13:50:06;3.20;;;2.22;;
27792;SDS011;15174;48.190;11.462;2024-03-22T13:52:33;8.73;;;2.53;;
27792;SDS011;15174;48.190;11.462;2024-03-22T13:55:00;4.82;;;2.05;;
27792;SDS011;15174;48.190;11.462;2024-03-22T13:57:26;5.07;;;2.42;;
27792;SDS011;15174;48.190;11.462;2024-03-22T13:59:52;5.22;;;2.45;;
27792;SDS011;15174;48.190;11.462;2024-03-22T14:02:19;4.10;;;2.28;;
27792;SDS011;15174;48.190;11.462;2024-03-22T14:04:45;3.53;;;2.28;;
27792;SDS011;15174;48.190;11.462;2024-03-22T14:07:11;5.07;;;2.53;;
27792;SDS011;15174;48.190;11.462;2024-03-22T14:09:37;3.85;;;2.13;;
27792;SDS011;15174;48.190;11.462;2024-03-22T14:12:04;5.30;;;2.35;;
27792;SDS011;15174;48.190;11.462;2024-03-22T14:14:31;3.05;;;2.00;;
27792;SDS011;15174;48.190;11.462;2024-03-22T14:16:57;5.43;;;2.05;;